Destinations Sofia Airport

Sofia Airport (LBSF / SOF)

Flights to Sofia Airport

Flight number From ETE Dispatch
SPY-2276 EGFF Cardiff International Airport 03:45
SPY-2488 EGPH Edinburgh Airport 03:30

Flights from Sofia Airport

Flight number To ETE Dispatch
SPY-2277 EGFF Cardiff International Airport 03:45
SPY-2489 EGPH Edinburgh Airport 03:30
About

Sofia Airport facts

Sofia Airport is located in Sofia at an elevation of 531.0 meters or 1742 feet.

Currently, Speedy Airlines serves 4 flights to and from Sofia Airport.

Detailed airport info

Route map

Weather

Current weather

METAR

METAR

Metar data retrieved Sunday, 21 July 2024 at 18:55 UTC

LBSF 211830Z AUTO 14005KT 9999 NSC 26/19 Q1010 NOSIG
Wind Temperature
5 kt 26c